createdAt,value
2023-02-17T00:00:19.588Z,48.47
2023-02-17T00:02:46.433Z,47.85
2023-02-17T00:05:14.870Z,47.97
2023-02-17T00:07:41.822Z,48.83
2023-02-17T00:10:09.194Z,42.25
2023-02-17T00:12:36.761Z,52.50
2023-02-17T00:15:04.213Z,46.83
2023-02-17T00:17:31.422Z,40.78
2023-02-17T00:19:58.296Z,51.70
2023-02-17T00:22:25.085Z,46.30
2023-02-17T00:24:52.106Z,49.72
2023-02-17T00:27:19.699Z,70.55
2023-02-17T00:29:46.563Z,62.05
2023-02-17T00:32:13.849Z,48.28
2023-02-17T00:34:40.700Z,55.47
2023-02-17T00:37:07.796Z,61.70
2023-02-17T00:39:34.689Z,60.05
2023-02-17T00:42:03.038Z,61.17
2023-02-17T00:44:33.187Z,64.35
2023-02-17T00:46:59.983Z,53.85
2023-02-17T00:49:27.491Z,48.35
2023-02-17T00:51:54.769Z,49.58
2023-02-17T00:54:21.579Z,57.75
2023-02-17T00:56:48.399Z,47.25
2023-02-17T00:59:15.260Z,51.63
2023-02-17T01:01:42.467Z,61.47
2023-02-17T01:04:09.500Z,49.38
2023-02-17T01:06:38.617Z,55.03
2023-02-17T01:09:08.179Z,49.90
2023-02-17T01:11:36.530Z,80.53
2023-02-17T01:14:06.399Z,74.05
2023-02-17T01:16:46.331Z,66.65
2023-02-17T01:19:15.857Z,59.83
2023-02-17T01:21:43.620Z,52.85
2023-02-17T01:24:12.886Z,63.05
2023-02-17T01:26:40.555Z,55.40
2023-02-17T01:29:07.953Z,51.28
2023-02-17T01:31:35.517Z,49.95
2023-02-17T01:34:04.001Z,49.00
2023-02-17T01:36:31.062Z,44.30
2023-02-17T01:38:58.399Z,52.90
2023-02-17T01:41:28.021Z,41.17
2023-02-17T01:44:11.537Z,47.15
2023-02-17T01:46:40.342Z,34.63
2023-02-17T01:49:35.349Z,41.05
2023-02-17T01:52:16.574Z,36.00
2023-02-17T01:54:55.516Z,40.63
2023-02-17T01:57:25.012Z,43.28
2023-02-17T01:59:52.422Z,33.63
2023-02-17T02:02:20.067Z,31.60
2023-02-17T02:04:51.768Z,38.65
2023-02-17T02:07:22.508Z,31.63
2023-02-17T02:09:54.162Z,30.45
2023-02-17T02:12:32.937Z,38.10
2023-02-17T02:15:13.275Z,36.10
2023-02-17T02:17:45.888Z,28.65
2023-02-17T02:20:31.519Z,29.75
2023-02-17T02:23:09.773Z,30.98
2023-02-17T02:26:01.567Z,26.13
2023-02-17T02:28:47.678Z,20.33
2023-02-17T02:31:35.086Z,21.75
2023-02-17T02:34:09.205Z,18.35
2023-02-17T02:36:45.047Z,15.90
2023-02-17T02:39:19.133Z,18.52
2023-02-17T02:41:57.052Z,21.33
2023-02-17T02:44:24.099Z,19.38
2023-02-17T02:47:03.652Z,19.30
2023-02-17T02:49:33.346Z,18.63
2023-02-17T02:52:00.522Z,21.13
2023-02-17T02:54:55.543Z,17.10
2023-02-17T02:57:32.306Z,23.48
2023-02-17T03:00:28.450Z,22.92
2023-02-17T03:03:05.716Z,18.92
2023-02-17T03:05:45.924Z,30.10
2023-02-17T03:08:17.676Z,24.27
2023-02-17T03:10:49.931Z,30.67
2023-02-17T03:13:18.145Z,25.50
2023-02-17T03:15:46.183Z,31.58
2023-02-17T03:18:14.023Z,24.23
2023-02-17T03:21:06.491Z,19.20
2023-02-17T03:23:33.332Z,17.83
2023-02-17T03:26:00.508Z,14.38
2023-02-17T03:28:27.691Z,23.85
2023-02-17T03:30:54.964Z,23.73
2023-02-17T03:33:21.819Z,16.60
2023-02-17T03:35:48.704Z,18.33
2023-02-17T03:38:15.480Z,17.73
2023-02-17T03:40:42.283Z,18.05
2023-02-17T03:43:09.079Z,27.48
2023-02-17T03:45:37.796Z,23.90
2023-02-17T03:48:04.872Z,24.17
2023-02-17T03:50:31.731Z,17.33
2023-02-17T03:52:58.550Z,21.83
2023-02-17T03:55:25.715Z,21.83
2023-02-17T03:57:53.073Z,20.75
2023-02-17T04:00:20.363Z,25.42
2023-02-17T04:02:47.697Z,25.77
2023-02-17T04:05:14.556Z,23.90
2023-02-17T04:07:41.721Z,24.30
2023-02-17T04:10:09.775Z,26.48
2023-02-17T04:12:37.410Z,22.08
2023-02-17T04:15:04.361Z,23.73
2023-02-17T04:17:31.230Z,27.17
2023-02-17T04:19:58.226Z,27.55
2023-02-17T04:22:25.057Z,21.10
2023-02-17T04:24:51.899Z,20.00
2023-02-17T04:27:19.082Z,24.50
2023-02-17T04:29:45.874Z,25.70
2023-02-17T04:32:13.024Z,23.52
2023-02-17T04:34:40.320Z,23.75
2023-02-17T04:37:07.557Z,22.95
2023-02-17T04:39:34.376Z,22.52
2023-02-17T04:42:01.205Z,20.67
2023-02-17T04:44:28.043Z,24.70
2023-02-17T04:46:55.232Z,75.45
2023-02-17T04:49:22.275Z,26.70
2023-02-17T04:51:49.543Z,20.52
2023-02-17T04:54:16.806Z,23.15
2023-02-17T04:56:43.778Z,14.73
2023-02-17T04:59:10.593Z,13.80
2023-02-17T05:01:37.387Z,14.27
2023-02-17T05:04:04.399Z,17.92
2023-02-17T05:06:31.415Z,11.10
2023-02-17T05:08:58.803Z,15.38
2023-02-17T05:11:25.642Z,14.93
2023-02-17T05:13:52.447Z,21.80
2023-02-17T05:16:19.307Z,12.48
2023-02-17T05:18:46.546Z,25.58
2023-02-17T05:21:13.353Z,27.85
2023-02-17T05:23:41.409Z,31.27
2023-02-17T05:26:11.548Z,29.90
2023-02-17T05:28:38.534Z,25.70
2023-02-17T05:31:06.758Z,24.70
2023-02-17T05:33:33.724Z,22.20
2023-02-17T05:36:08.994Z,22.73
2023-02-17T05:38:39.087Z,32.95
2023-02-17T05:41:07.310Z,26.35
2023-02-17T05:43:34.258Z,36.47
2023-02-17T05:46:03.214Z,29.30
2023-02-17T05:48:30.375Z,33.63
2023-02-17T05:50:57.140Z,22.75
2023-02-17T05:53:24.412Z,19.45
2023-02-17T05:55:51.304Z,17.33
2023-02-17T05:58:18.269Z,27.35
2023-02-17T06:00:48.240Z,31.13
2023-02-17T06:03:15.336Z,28.55
2023-02-17T06:05:42.234Z,35.30
2023-02-17T06:08:09.139Z,30.33
2023-02-17T06:10:35.976Z,29.48
2023-02-17T06:13:02.796Z,36.83
2023-02-17T06:15:30.523Z,26.95
2023-02-17T06:17:57.363Z,26.00
2023-02-17T06:20:24.603Z,22.95
2023-02-17T06:22:51.743Z,25.48
2023-02-17T06:25:18.910Z,24.23
2023-02-17T06:27:45.883Z,16.73
2023-02-17T06:30:13.811Z,17.75
2023-02-17T06:32:40.609Z,16.48
2023-02-17T06:35:07.755Z,24.08
2023-02-17T06:37:34.788Z,24.98
2023-02-17T06:40:01.555Z,16.13
2023-02-17T06:42:28.395Z,18.73
2023-02-17T06:44:55.630Z,14.30
2023-02-17T06:47:22.428Z,20.50
2023-02-17T06:49:49.240Z,17.65
2023-02-17T06:52:16.057Z,18.70
2023-02-17T06:54:42.878Z,10.85
2023-02-17T06:57:11.170Z,16.38
2023-02-17T06:59:37.999Z,25.83
2023-02-17T07:02:05.604Z,15.77
2023-02-17T07:04:32.982Z,21.52
2023-02-17T07:06:59.882Z,16.70
2023-02-17T07:09:26.812Z,20.98
2023-02-17T07:11:53.683Z,21.83
2023-02-17T07:14:21.723Z,18.52
2023-02-17T07:16:49.552Z,28.17
2023-02-17T07:19:16.437Z,16.13
2023-02-17T07:21:44.017Z,15.77
2023-02-17T07:24:11.208Z,21.95
2023-02-17T07:26:41.720Z,15.50
2023-02-17T07:29:08.830Z,15.18
2023-02-17T07:31:36.478Z,15.98
2023-02-17T07:34:04.697Z,15.43
2023-02-17T07:36:32.072Z,24.85
2023-02-17T07:38:59.172Z,25.67
2023-02-17T07:41:28.744Z,25.77
2023-02-17T07:43:57.135Z,22.85
2023-02-17T07:46:24.514Z,23.73
2023-02-17T07:48:51.474Z,16.67
2023-02-17T07:51:21.850Z,20.80
2023-02-17T07:53:49.964Z,16.13
2023-02-17T07:56:18.668Z,19.00
2023-02-17T07:58:46.289Z,19.80
2023-02-17T08:01:19.712Z,21.65
2023-02-17T08:03:47.211Z,17.20
2023-02-17T08:06:19.441Z,15.45
2023-02-17T08:09:06.178Z,20.13
2023-02-17T08:11:52.138Z,24.38
2023-02-17T08:14:22.235Z,26.42
2023-02-17T08:16:49.125Z,28.25
2023-02-17T08:19:16.265Z,17.58
2023-02-17T08:21:43.501Z,19.65
2023-02-17T08:24:10.837Z,14.15
2023-02-17T08:26:37.992Z,13.85
2023-02-17T08:29:05.798Z,16.02
2023-02-17T08:31:35.513Z,18.90
2023-02-17T08:34:05.245Z,17.02
2023-02-17T08:36:32.810Z,17.15
2023-02-17T08:39:01.532Z,15.77
2023-02-17T08:41:34.845Z,19.95
2023-02-17T08:44:04.370Z,17.50
2023-02-17T08:46:31.419Z,15.30
2023-02-17T08:48:58.883Z,15.75
2023-02-17T08:51:25.997Z,17.85
2023-02-17T08:53:56.321Z,13.77
2023-02-17T08:56:24.308Z,14.10
2023-02-17T08:58:51.979Z,10.20
2023-02-17T09:01:19.298Z,16.75
2023-02-17T09:03:48.609Z,14.27
2023-02-17T09:06:16.207Z,18.00
2023-02-17T09:08:44.100Z,14.73
2023-02-17T09:11:11.567Z,18.30
2023-02-17T09:13:38.866Z,19.95
2023-02-17T09:16:06.783Z,19.30
2023-02-17T09:18:33.973Z,18.17
2023-02-17T09:21:06.654Z,18.52
2023-02-17T09:23:33.664Z,18.15
2023-02-17T09:26:06.173Z,19.35
2023-02-17T09:28:34.315Z,18.05
2023-02-17T09:31:22.980Z,15.70
2023-02-17T09:33:50.572Z,15.75
2023-02-17T09:36:20.820Z,17.80
2023-02-17T09:38:48.495Z,18.23
2023-02-17T09:41:24.370Z,16.17
2023-02-17T09:43:52.485Z,16.73
2023-02-17T09:47:00.803Z,14.60
2023-02-17T09:49:35.058Z,16.67
2023-02-17T09:52:18.177Z,16.80
2023-02-17T09:55:05.317Z,19.65
2023-02-17T09:57:40.193Z,19.33
2023-02-17T10:00:15.630Z,12.23
2023-02-17T10:03:06.377Z,12.85
2023-02-17T10:05:42.148Z,10.23
2023-02-17T10:08:17.399Z,9.30
2023-02-17T10:10:54.254Z,10.00
2023-02-17T10:13:23.852Z,14.30
2023-02-17T10:15:53.356Z,11.73
2023-02-17T10:18:33.402Z,10.85
2023-02-17T10:21:00.600Z,8.60
2023-02-17T10:23:29.392Z,10.75
2023-02-17T10:25:56.217Z,8.02
2023-02-17T10:28:49.343Z,6.45
2023-02-17T10:31:23.696Z,6.20
2023-02-17T10:34:04.117Z,6.13
2023-02-17T10:36:52.526Z,6.78
2023-02-17T10:39:41.665Z,6.63
2023-02-17T10:42:23.568Z,8.15
2023-02-17T10:44:52.747Z,4.43
2023-02-17T10:47:21.538Z,5.47
2023-02-17T10:49:52.016Z,9.07
2023-02-17T10:52:38.226Z,21.23
2023-02-17T10:55:24.184Z,17.40
2023-02-17T10:58:14.076Z,9.32
2023-02-17T11:00:42.918Z,7.40
2023-02-17T11:03:24.686Z,6.70
2023-02-17T11:06:03.444Z,4.18
2023-02-17T11:08:59.470Z,3.10
2023-02-17T11:11:32.254Z,5.57
2023-02-17T11:14:37.866Z,6.13
2023-02-17T11:17:17.319Z,4.60
2023-02-17T11:20:06.457Z,2.03
2023-02-17T11:22:44.589Z,2.35
2023-02-17T11:25:35.828Z,2.35
2023-02-17T11:28:11.681Z,2.70
2023-02-17T11:30:48.552Z,2.67
2023-02-17T11:33:21.872Z,3.83
2023-02-17T11:35:55.016Z,3.35
2023-02-17T11:38:28.245Z,2.75
2023-02-17T11:41:04.579Z,3.38
2023-02-17T11:43:33.146Z,6.60
2023-02-17T11:46:03.846Z,2.92
2023-02-17T11:49:07.295Z,2.78
2023-02-17T11:51:42.757Z,3.25
2023-02-17T11:54:29.556Z,2.67
2023-02-17T11:57:11.614Z,2.38
2023-02-17T12:00:09.758Z,1.92
2023-02-17T12:02:54.333Z,2.35
2023-02-17T12:05:48.896Z,1.65
2023-02-17T12:08:33.195Z,2.72
2023-02-17T12:11:35.468Z,3.25
2023-02-17T12:14:13.674Z,2.42
2023-02-17T12:16:51.688Z,1.50
2023-02-17T12:19:29.788Z,2.75
2023-02-17T12:22:20.461Z,2.85
2023-02-17T12:24:53.157Z,2.50
2023-02-17T12:27:38.346Z,1.40
2023-02-17T12:30:17.657Z,1.52
2023-02-17T12:32:50.648Z,1.95
2023-02-17T12:35:25.762Z,2.20
2023-02-17T12:37:58.383Z,1.42
2023-02-17T12:40:38.509Z,1.95
2023-02-17T12:43:26.953Z,2.50
2023-02-17T12:45:57.038Z,2.22
2023-02-17T12:48:31.554Z,3.17
2023-02-17T12:51:24.571Z,1.60
2023-02-17T12:53:58.430Z,2.60
2023-02-17T12:56:25.163Z,3.75
2023-02-17T12:58:54.006Z,2.75
2023-02-17T13:01:24.659Z,6.28
2023-02-17T13:03:51.716Z,4.70
2023-02-17T13:06:36.737Z,3.65
2023-02-17T13:09:17.793Z,3.13
2023-02-17T13:11:45.633Z,3.72
2023-02-17T13:14:29.414Z,5.22
2023-02-17T13:16:56.414Z,3.90
2023-02-17T13:19:31.827Z,4.82
2023-02-17T13:22:02.361Z,3.40
2023-02-17T13:24:51.105Z,5.55
2023-02-17T13:27:32.942Z,4.60
2023-02-17T13:30:22.754Z,4.38
2023-02-17T13:33:02.192Z,3.92
2023-02-17T13:35:35.743Z,4.28
2023-02-17T13:38:02.997Z,4.13
2023-02-17T13:40:30.038Z,4.57
2023-02-17T13:43:18.079Z,4.40
2023-02-17T13:45:53.779Z,4.18
2023-02-17T13:48:27.082Z,4.18
2023-02-17T13:50:59.481Z,7.18
2023-02-17T13:53:32.475Z,7.28
2023-02-17T13:56:05.314Z,8.35
2023-02-17T13:58:35.806Z,4.80
2023-02-17T14:01:04.704Z,3.97
2023-02-17T14:03:41.858Z,3.75
2023-02-17T14:06:33.768Z,5.85
2023-02-17T14:09:00.806Z,4.93
2023-02-17T14:11:32.893Z,4.03
2023-02-17T14:14:08.105Z,4.70
2023-02-17T14:16:40.294Z,5.05
2023-02-17T14:19:10.097Z,5.60
2023-02-17T14:21:39.661Z,11.93
2023-02-17T14:24:07.278Z,8.43
2023-02-17T14:26:48.585Z,5.82
2023-02-17T14:29:16.385Z,6.47
2023-02-17T14:31:51.229Z,7.85
2023-02-17T14:34:20.736Z,7.28
2023-02-17T14:36:48.027Z,6.75
2023-02-17T14:39:15.896Z,4.03
2023-02-17T14:41:42.976Z,5.15
2023-02-17T14:44:10.362Z,4.72
2023-02-17T14:46:37.420Z,6.00
2023-02-17T14:49:04.421Z,7.00
2023-02-17T14:51:36.722Z,5.05
2023-02-17T14:54:15.587Z,5.68
2023-02-17T14:56:53.458Z,4.65
2023-02-17T14:59:20.696Z,5.80
2023-02-17T15:01:47.922Z,6.10
2023-02-17T15:04:14.780Z,12.00
2023-02-17T15:06:48.347Z,6.50
2023-02-17T15:09:21.484Z,6.20
2023-02-17T15:11:49.237Z,6.85
2023-02-17T15:14:18.942Z,5.40
2023-02-17T15:16:47.834Z,9.32
2023-02-17T15:19:18.075Z,13.65
2023-02-17T15:21:51.264Z,9.50
2023-02-17T15:24:25.698Z,7.90
2023-02-17T15:26:57.527Z,10.02
2023-02-17T15:29:27.541Z,13.82
2023-02-17T15:31:57.245Z,5.60
2023-02-17T15:34:30.875Z,7.03
2023-02-17T15:36:59.230Z,10.70
2023-02-17T15:39:26.826Z,14.68
2023-02-17T15:41:57.105Z,12.93
2023-02-17T15:44:26.569Z,8.05
2023-02-17T15:46:55.374Z,6.57
2023-02-17T15:49:24.630Z,7.07
2023-02-17T15:51:53.462Z,6.05
2023-02-17T15:54:23.397Z,6.63
2023-02-17T15:56:52.408Z,5.30
2023-02-17T15:59:25.618Z,5.68
2023-02-17T16:02:01.928Z,12.82
2023-02-17T16:04:29.642Z,6.78
2023-02-17T16:06:57.083Z,7.30
2023-02-17T16:09:23.907Z,7.60
2023-02-17T16:11:57.341Z,7.30
2023-02-17T16:14:35.340Z,10.18
2023-02-17T16:17:04.848Z,13.90
2023-02-17T16:19:33.402Z,19.80
2023-02-17T16:22:00.508Z,7.63
2023-02-17T16:24:28.895Z,6.03
2023-02-17T16:27:00.040Z,5.70
2023-02-17T16:29:27.308Z,4.90
2023-02-17T16:31:55.066Z,6.40
2023-02-17T16:34:24.569Z,4.80
2023-02-17T16:36:53.393Z,4.78
2023-02-17T16:39:21.428Z,3.45
2023-02-17T16:41:49.517Z,6.80
2023-02-17T16:44:18.705Z,5.30
2023-02-17T16:46:49.786Z,4.35
2023-02-17T16:49:32.653Z,5.78
2023-02-17T16:52:00.671Z,6.32
2023-02-17T16:54:27.904Z,2.70
2023-02-17T16:56:56.008Z,5.53
2023-02-17T16:59:26.571Z,4.28
2023-02-17T17:01:53.881Z,8.63
2023-02-17T17:04:21.819Z,4.20
2023-02-17T17:06:51.330Z,6.95
2023-02-17T17:09:23.825Z,7.95
2023-02-17T17:11:51.373Z,9.57
2023-02-17T17:14:20.077Z,10.02
2023-02-17T17:16:56.589Z,13.93
2023-02-17T17:19:24.334Z,11.40
2023-02-17T17:21:51.221Z,8.60
2023-02-17T17:24:18.119Z,10.70
2023-02-17T17:26:47.031Z,9.45
2023-02-17T17:29:16.264Z,12.73
2023-02-17T17:31:43.200Z,11.23
2023-02-17T17:34:10.190Z,12.27
2023-02-17T17:36:40.961Z,12.60
2023-02-17T17:39:16.239Z,9.27
2023-02-17T17:41:43.201Z,10.95
2023-02-17T17:44:10.648Z,11.98
2023-02-17T17:46:38.997Z,12.27
2023-02-17T17:49:08.892Z,9.27
2023-02-17T17:51:37.306Z,9.60
2023-02-17T17:54:06.091Z,10.73
2023-02-17T17:56:36.225Z,11.02
2023-02-17T17:59:04.053Z,13.07
2023-02-17T18:01:31.487Z,7.95
2023-02-17T18:04:00.224Z,8.70
2023-02-17T18:06:32.869Z,9.43
2023-02-17T18:09:04.934Z,9.05
2023-02-17T18:11:33.438Z,9.55
2023-02-17T18:14:04.303Z,14.50
2023-02-17T18:16:32.287Z,10.52
2023-02-17T18:19:01.040Z,12.82
2023-02-17T18:21:27.884Z,19.95
2023-02-17T18:23:55.127Z,19.77
2023-02-17T18:26:22.143Z,14.18
2023-02-17T18:28:49.460Z,14.88
2023-02-17T18:31:17.444Z,13.40
2023-02-17T18:33:44.337Z,17.33
2023-02-17T18:36:17.500Z,16.70
2023-02-17T18:38:44.750Z,16.40
2023-02-17T18:41:24.868Z,14.75
2023-02-17T18:43:52.572Z,16.17
2023-02-17T18:46:20.412Z,16.77
2023-02-17T18:48:47.692Z,18.38
2023-02-17T18:51:19.119Z,20.02
2023-02-17T18:53:47.341Z,27.85
2023-02-17T18:56:19.951Z,18.50
2023-02-17T18:58:47.874Z,20.95
2023-02-17T19:01:19.311Z,9.63
2023-02-17T19:03:52.313Z,8.10
2023-02-17T19:06:22.373Z,9.10
2023-02-17T19:08:49.963Z,12.63
2023-02-17T19:11:18.739Z,7.15
2023-02-17T19:13:45.851Z,5.25
2023-02-17T19:16:21.882Z,6.15
2023-02-17T19:18:48.930Z,5.43
2023-02-17T19:21:18.881Z,5.90
2023-02-17T19:23:45.736Z,6.63
2023-02-17T19:26:13.873Z,5.00
2023-02-17T19:28:42.008Z,4.50
2023-02-17T19:31:12.386Z,4.68
2023-02-17T19:33:39.603Z,3.33
2023-02-17T19:36:12.256Z,4.82
2023-02-17T19:38:39.575Z,3.53
2023-02-17T19:41:09.148Z,5.80
2023-02-17T19:43:36.951Z,3.88
2023-02-17T19:46:04.161Z,3.25
2023-02-17T19:48:31.336Z,3.92
2023-02-17T19:51:05.509Z,4.20
2023-02-17T19:53:33.384Z,3.90
2023-02-17T19:56:28.017Z,3.28
2023-02-17T19:58:56.233Z,3.83
2023-02-17T20:01:25.899Z,3.92
2023-02-17T20:03:54.732Z,4.30
2023-02-17T20:06:28.863Z,3.83
2023-02-17T20:08:59.274Z,4.65
2023-02-17T20:11:26.838Z,5.00
2023-02-17T20:13:54.342Z,4.25
2023-02-17T20:16:21.389Z,3.53
2023-02-17T20:18:49.877Z,3.92
2023-02-17T20:21:21.813Z,3.92
2023-02-17T20:23:49.055Z,3.88
2023-02-17T20:26:19.891Z,4.22
2023-02-17T20:28:47.167Z,5.13
2023-02-17T20:31:14.733Z,4.15
2023-02-17T20:33:42.117Z,4.00
2023-02-17T20:36:09.851Z,4.80
2023-02-17T20:38:39.629Z,4.03
2023-02-17T20:41:08.349Z,4.25
2023-02-17T20:43:37.798Z,4.72
2023-02-17T20:46:05.558Z,3.60
2023-02-17T20:48:33.205Z,6.03
2023-02-17T20:50:59.984Z,4.85
2023-02-17T20:53:27.290Z,4.22
2023-02-17T20:55:54.212Z,5.80
2023-02-17T20:58:21.239Z,3.80
2023-02-17T21:00:48.645Z,4.10
2023-02-17T21:03:15.615Z,3.75
2023-02-17T21:05:42.577Z,3.67
2023-02-17T21:08:09.938Z,4.28
2023-02-17T21:10:39.802Z,3.95
2023-02-17T21:13:06.638Z,6.18
2023-02-17T21:15:33.914Z,4.78
2023-02-17T21:18:01.161Z,9.38
2023-02-17T21:20:28.408Z,5.55
2023-02-17T21:22:55.169Z,5.60
2023-02-17T21:25:22.072Z,5.22
2023-02-17T21:27:49.362Z,4.97
2023-02-17T21:30:16.270Z,6.55
2023-02-17T21:32:43.128Z,10.23
2023-02-17T21:35:11.298Z,5.68
2023-02-17T21:37:39.140Z,7.07
2023-02-17T21:40:10.491Z,5.32
2023-02-17T21:42:56.937Z,7.00
2023-02-17T21:45:24.742Z,6.05
2023-02-17T21:47:52.012Z,5.25
2023-02-17T21:50:19.686Z,4.05
2023-02-17T21:52:46.969Z,3.78
2023-02-17T21:55:13.914Z,4.88
2023-02-17T21:57:40.730Z,7.72
2023-02-17T22:00:08.752Z,11.27
2023-02-17T22:02:36.352Z,5.32
2023-02-17T22:05:03.157Z,8.32
2023-02-17T22:07:30.003Z,6.00
2023-02-17T22:09:58.089Z,5.57
2023-02-17T22:12:25.485Z,7.75
2023-02-17T22:14:52.291Z,9.70
2023-02-17T22:17:19.223Z,7.72
2023-02-17T22:19:46.384Z,5.50
2023-02-17T22:22:13.205Z,5.95
2023-02-17T22:24:42.787Z,10.60
2023-02-17T22:27:09.958Z,12.52
2023-02-17T22:29:36.768Z,6.53
2023-02-17T22:32:04.000Z,7.85
2023-02-17T22:34:31.288Z,7.55
2023-02-17T22:36:58.112Z,9.73
2023-02-17T22:39:25.338Z,7.95
2023-02-17T22:41:52.545Z,15.43
2023-02-17T22:44:19.741Z,8.90
2023-02-17T22:46:46.504Z,8.90
2023-02-17T22:49:13.486Z,5.38
2023-02-17T22:51:40.764Z,4.50
2023-02-17T22:54:08.710Z,9.32
2023-02-17T22:56:36.024Z,5.65
2023-02-17T22:59:04.917Z,5.15
2023-02-17T23:01:34.738Z,7.38
2023-02-17T23:04:02.176Z,6.97
2023-02-17T23:06:33.526Z,13.15
2023-02-17T23:09:01.347Z,12.20
2023-02-17T23:11:52.753Z,7.93
2023-02-17T23:14:32.816Z,7.90
2023-02-17T23:17:02.988Z,6.72
2023-02-17T23:19:30.657Z,6.55
2023-02-17T23:22:00.741Z,6.85
2023-02-17T23:24:28.038Z,6.13
2023-02-17T23:26:57.170Z,4.70
2023-02-17T23:29:24.598Z,6.07
2023-02-17T23:31:52.326Z,6.68
2023-02-17T23:34:19.846Z,9.60
2023-02-17T23:36:47.426Z,10.73
2023-02-17T23:39:16.224Z,13.00
2023-02-17T23:41:43.199Z,11.75
2023-02-17T23:44:11.760Z,6.03
2023-02-17T23:46:39.103Z,5.80
2023-02-17T23:49:06.213Z,8.43
2023-02-17T23:51:33.104Z,11.43
2023-02-17T23:54:00.717Z,6.78
2023-02-17T23:56:30.734Z,7.15
2023-02-17T23:58:57.730Z,7.05
